KEMP/EMP METAR and TAF weather

Enter ICAO airport designator
Station Type Date Time Source
KEMP METAR 2020/02/20 22:53 UTC NOAA

KEMP 202253Z AUTO 01010G15KT 10SM CLR 00/M11 A3070 RMK AO2 SLP415 T00001111


Station Type Date Time Source
KEMP Decoded METAR 2020/02/20 22:53 UTC NOAA

EMPORIA MUNICIPAL AIRPORT, KS, United States (KEMP) 38-20N 96-12W 367M
Feb 20, 2020 - 05:53 PM EST / 2020.02.20 2253 UTC
Wind: from the N (010 degrees) at 12 MPH (10 KT) gusting to 17 MPH (15 KT):0
Visibility: 10 mile(s):0
Sky conditions: clear
Temperature: 32.0 F (0.0 C)
Windchill: 23 F (-5 C):1
Dew Point: 12.0 F (-11.1 C)
Relative Humidity: 42%
Pressure (altimeter): 30.7 in. Hg (1039 hPa)
ob: KEMP 202253Z AUTO 01010G15KT 10SM CLR 00/M11 A3070 RMK AO2 SLP415 T00001111
cycle: 23

Station Type Date Time Source
KEMP TAF UTC NOAA

Error!

Example: see airport list